sensor_id;sensor_type;location;lat;lon;timestamp;P1;durP1;ratioP1;P2;durP2;ratioP2
24143;SDS011;12307;50.828;6.080;2022-11-20T00:01:43;5.32;;;3.55;;
24143;SDS011;12307;50.828;6.080;2022-11-20T00:04:10;4.03;;;3.63;;
24143;SDS011;12307;50.828;6.080;2022-11-20T00:06:37;4.15;;;3.53;;
24143;SDS011;12307;50.828;6.080;2022-11-20T00:09:02;4.45;;;3.60;;
24143;SDS011;12307;50.828;6.080;2022-11-20T00:11:31;4.15;;;3.47;;
24143;SDS011;12307;50.828;6.080;2022-11-20T00:13:58;4.50;;;3.58;;
24143;SDS011;12307;50.828;6.080;2022-11-20T00:16:26;4.55;;;3.70;;
24143;SDS011;12307;50.828;6.080;2022-11-20T00:18:53;4.40;;;3.80;;
24143;SDS011;12307;50.828;6.080;2022-11-20T00:21:20;4.55;;;3.90;;
24143;SDS011;12307;50.828;6.080;2022-11-20T00:23:47;5.72;;;3.90;;
24143;SDS011;12307;50.828;6.080;2022-11-20T00:26:14;3.83;;;3.42;;
24143;SDS011;12307;50.828;6.080;2022-11-20T00:28:42;4.30;;;3.40;;
24143;SDS011;12307;50.828;6.080;2022-11-20T00:31:10;4.63;;;3.92;;
24143;SDS011;12307;50.828;6.080;2022-11-20T00:33:37;4.18;;;3.72;;
24143;SDS011;12307;50.828;6.080;2022-11-20T00:36:03;4.32;;;3.65;;
24143;SDS011;12307;50.828;6.080;2022-11-20T00:38:30;4.28;;;3.88;;
24143;SDS011;12307;50.828;6.080;2022-11-20T00:40:56;4.50;;;3.50;;
24143;SDS011;12307;50.828;6.080;2022-11-20T00:43:22;4.15;;;3.70;;
24143;SDS011;12307;50.828;6.080;2022-11-20T00:45:50;4.15;;;3.75;;
24143;SDS011;12307;50.828;6.080;2022-11-20T00:48:16;3.90;;;3.50;;
24143;SDS011;12307;50.828;6.080;2022-11-20T00:50:41;3.67;;;3.38;;
24143;SDS011;12307;50.828;6.080;2022-11-20T00:53:07;4.30;;;3.90;;
24143;SDS011;12307;50.828;6.080;2022-11-20T00:55:33;4.30;;;3.83;;
24143;SDS011;12307;50.828;6.080;2022-11-20T00:57:58;4.07;;;3.38;;
24143;SDS011;12307;50.828;6.080;2022-11-20T01:00:24;4.55;;;3.83;;
24143;SDS011;12307;50.828;6.080;2022-11-20T01:02:51;4.18;;;3.25;;
24143;SDS011;12307;50.828;6.080;2022-11-20T01:05:16;4.50;;;4.05;;
24143;SDS011;12307;50.828;6.080;2022-11-20T01:07:42;8.30;;;4.30;;
24143;SDS011;12307;50.828;6.080;2022-11-20T01:10:08;4.05;;;3.65;;
24143;SDS011;12307;50.828;6.080;2022-11-20T01:12:34;4.88;;;3.47;;
24143;SDS011;12307;50.828;6.080;2022-11-20T01:14:59;4.32;;;3.50;;
24143;SDS011;12307;50.828;6.080;2022-11-20T01:17:25;4.88;;;3.78;;
24143;SDS011;12307;50.828;6.080;2022-11-20T01:19:52;3.85;;;3.45;;
24143;SDS011;12307;50.828;6.080;2022-11-20T01:22:18;4.28;;;3.58;;
24143;SDS011;12307;50.828;6.080;2022-11-20T01:24:43;4.05;;;3.42;;
24143;SDS011;12307;50.828;6.080;2022-11-20T01:27:09;4.65;;;3.55;;
24143;SDS011;12307;50.828;6.080;2022-11-20T01:29:34;4.22;;;3.60;;
24143;SDS011;12307;50.828;6.080;2022-11-20T01:32:00;4.35;;;3.95;;
24143;SDS011;12307;50.828;6.080;2022-11-20T01:34:26;4.50;;;3.63;;
24143;SDS011;12307;50.828;6.080;2022-11-20T01:36:53;3.83;;;3.28;;
24143;SDS011;12307;50.828;6.080;2022-11-20T01:39:19;3.95;;;3.55;;
24143;SDS011;12307;50.828;6.080;2022-11-20T01:41:46;4.15;;;3.75;;
24143;SDS011;12307;50.828;6.080;2022-11-20T01:44:43;4.32;;;3.70;;
24143;SDS011;12307;50.828;6.080;2022-11-20T01:47:13;3.72;;;3.33;;
24143;SDS011;12307;50.828;6.080;2022-11-20T01:49:42;4.38;;;3.53;;
24143;SDS011;12307;50.828;6.080;2022-11-20T01:52:17;4.68;;;3.90;;
24143;SDS011;12307;50.828;6.080;2022-11-20T01:54:47;4.10;;;3.70;;
24143;SDS011;12307;50.828;6.080;2022-11-20T01:57:16;4.65;;;3.83;;
24143;SDS011;12307;50.828;6.080;2022-11-20T01:59:44;4.10;;;3.45;;
24143;SDS011;12307;50.828;6.080;2022-11-20T02:02:14;3.50;;;3.20;;
24143;SDS011;12307;50.828;6.080;2022-11-20T02:04:40;3.97;;;3.28;;
24143;SDS011;12307;50.828;6.080;2022-11-20T02:07:05;4.82;;;3.67;;
24143;SDS011;12307;50.828;6.080;2022-11-20T02:09:33;4.45;;;3.80;;
24143;SDS011;12307;50.828;6.080;2022-11-20T02:11:59;3.97;;;3.53;;
24143;SDS011;12307;50.828;6.080;2022-11-20T02:14:25;4.82;;;3.30;;
24143;SDS011;12307;50.828;6.080;2022-11-20T02:16:52;4.28;;;3.85;;
24143;SDS011;12307;50.828;6.080;2022-11-20T02:19:22;4.55;;;3.67;;
24143;SDS011;12307;50.828;6.080;2022-11-20T02:21:52;3.80;;;3.40;;
24143;SDS011;12307;50.828;6.080;2022-11-20T02:24:26;4.57;;;3.67;;
24143;SDS011;12307;50.828;6.080;2022-11-20T02:26:53;3.80;;;3.30;;
24143;SDS011;12307;50.828;6.080;2022-11-20T02:29:23;4.15;;;3.65;;
24143;SDS011;12307;50.828;6.080;2022-11-20T02:31:51;4.25;;;3.75;;
24143;SDS011;12307;50.828;6.080;2022-11-20T02:34:19;4.40;;;4.00;;
24143;SDS011;12307;50.828;6.080;2022-11-20T02:36:45;4.82;;;4.00;;
24143;SDS011;12307;50.828;6.080;2022-11-20T02:39:12;3.75;;;3.30;;
24143;SDS011;12307;50.828;6.080;2022-11-20T02:41:43;4.57;;;3.72;;
24143;SDS011;12307;50.828;6.080;2022-11-20T02:44:08;4.07;;;3.63;;
24143;SDS011;12307;50.828;6.080;2022-11-20T02:46:34;4.53;;;3.85;;
24143;SDS011;12307;50.828;6.080;2022-11-20T02:49:00;4.15;;;3.75;;
24143;SDS011;12307;50.828;6.080;2022-11-20T02:51:27;4.38;;;3.72;;
24143;SDS011;12307;50.828;6.080;2022-11-20T02:53:53;4.13;;;3.60;;
24143;SDS011;12307;50.828;6.080;2022-11-20T02:56:18;4.18;;;3.60;;
24143;SDS011;12307;50.828;6.080;2022-11-20T02:58:46;4.13;;;3.63;;
24143;SDS011;12307;50.828;6.080;2022-11-20T03:01:11;4.72;;;3.85;;
24143;SDS011;12307;50.828;6.080;2022-11-20T03:03:37;4.38;;;3.80;;
24143;SDS011;12307;50.828;6.080;2022-11-20T03:06:03;4.15;;;3.63;;
24143;SDS011;12307;50.828;6.080;2022-11-20T03:08:29;4.15;;;3.75;;
24143;SDS011;12307;50.828;6.080;2022-11-20T03:10:55;3.55;;;3.25;;
24143;SDS011;12307;50.828;6.080;2022-11-20T03:13:20;4.45;;;3.80;;
24143;SDS011;12307;50.828;6.080;2022-11-20T03:15:47;4.03;;;3.63;;
24143;SDS011;12307;50.828;6.080;2022-11-20T03:18:13;4.32;;;3.70;;
24143;SDS011;12307;50.828;6.080;2022-11-20T03:20:39;4.15;;;3.45;;
24143;SDS011;12307;50.828;6.080;2022-11-20T03:23:05;4.88;;;4.03;;
24143;SDS011;12307;50.828;6.080;2022-11-20T03:25:30;4.00;;;3.60;;
24143;SDS011;12307;50.828;6.080;2022-11-20T03:27:56;4.20;;;3.67;;
24143;SDS011;12307;50.828;6.080;2022-11-20T03:30:22;3.75;;;3.35;;
24143;SDS011;12307;50.828;6.080;2022-11-20T03:32:49;4.18;;;3.70;;
24143;SDS011;12307;50.828;6.080;2022-11-20T03:35:18;4.82;;;4.00;;
24143;SDS011;12307;50.828;6.080;2022-11-20T03:37:43;3.97;;;3.58;;
24143;SDS011;12307;50.828;6.080;2022-11-20T03:40:10;3.97;;;3.58;;
24143;SDS011;12307;50.828;6.080;2022-11-20T03:42:37;3.50;;;3.20;;
24143;SDS011;12307;50.828;6.080;2022-11-20T03:45:11;3.53;;;3.22;;
24143;SDS011;12307;50.828;6.080;2022-11-20T03:47:37;4.00;;;3.50;;
24143;SDS011;12307;50.828;6.080;2022-11-20T03:50:05;3.97;;;3.58;;
24143;SDS011;12307;50.828;6.080;2022-11-20T03:52:31;4.18;;;3.70;;
24143;SDS011;12307;50.828;6.080;2022-11-20T03:54:57;3.78;;;3.30;;
24143;SDS011;12307;50.828;6.080;2022-11-20T03:57:23;4.28;;;3.65;;
24143;SDS011;12307;50.828;6.080;2022-11-20T03:59:48;3.55;;;3.25;;
24143;SDS011;12307;50.828;6.080;2022-11-20T04:02:14;5.07;;;3.83;;
24143;SDS011;12307;50.828;6.080;2022-11-20T04:04:39;3.85;;;3.55;;
24143;SDS011;12307;50.828;6.080;2022-11-20T04:07:06;4.03;;;3.30;;
24143;SDS011;12307;50.828;6.080;2022-11-20T04:09:32;4.30;;;3.90;;
24143;SDS011;12307;50.828;6.080;2022-11-20T04:11:58;4.00;;;3.60;;
24143;SDS011;12307;50.828;6.080;2022-11-20T04:14:23;4.18;;;3.40;;
24143;SDS011;12307;50.828;6.080;2022-11-20T04:16:49;4.05;;;3.60;;
24143;SDS011;12307;50.828;6.080;2022-11-20T04:19:15;4.03;;;3.40;;
24143;SDS011;12307;50.828;6.080;2022-11-20T04:21:41;4.50;;;3.85;;
24143;SDS011;12307;50.828;6.080;2022-11-20T04:24:09;4.32;;;3.42;;
24143;SDS011;12307;50.828;6.080;2022-11-20T04:26:38;4.80;;;3.72;;
24143;SDS011;12307;50.828;6.080;2022-11-20T04:29:03;3.90;;;3.50;;
24143;SDS011;12307;50.828;6.080;2022-11-20T04:31:30;3.90;;;3.50;;
24143;SDS011;12307;50.828;6.080;2022-11-20T04:33:58;4.35;;;3.78;;
24143;SDS011;12307;50.828;6.080;2022-11-20T04:36:25;4.45;;;3.70;;
24143;SDS011;12307;50.828;6.080;2022-11-20T04:38:52;3.83;;;3.53;;
24143;SDS011;12307;50.828;6.080;2022-11-20T04:41:20;3.75;;;3.35;;
24143;SDS011;12307;50.828;6.080;2022-11-20T04:43:47;4.25;;;3.60;;
24143;SDS011;12307;50.828;6.080;2022-11-20T04:46:14;4.40;;;3.50;;
24143;SDS011;12307;50.828;6.080;2022-11-20T04:48:40;6.65;;;4.10;;
24143;SDS011;12307;50.828;6.080;2022-11-20T04:51:06;3.90;;;3.50;;
24143;SDS011;12307;50.828;6.080;2022-11-20T04:53:31;4.03;;;3.60;;
24143;SDS011;12307;50.828;6.080;2022-11-20T04:55:59;4.00;;;3.60;;
24143;SDS011;12307;50.828;6.080;2022-11-20T04:58:26;4.00;;;3.58;;
24143;SDS011;12307;50.828;6.080;2022-11-20T05:00:52;5.03;;;3.53;;
24143;SDS011;12307;50.828;6.080;2022-11-20T05:03:18;4.55;;;3.70;;
24143;SDS011;12307;50.828;6.080;2022-11-20T05:05:43;4.20;;;3.80;;
24143;SDS011;12307;50.828;6.080;2022-11-20T05:08:09;4.50;;;3.90;;
24143;SDS011;12307;50.828;6.080;2022-11-20T05:10:34;4.40;;;3.92;;
24143;SDS011;12307;50.828;6.080;2022-11-20T05:13:00;3.90;;;3.50;;
24143;SDS011;12307;50.828;6.080;2022-11-20T05:15:27;3.88;;;3.53;;
24143;SDS011;12307;50.828;6.080;2022-11-20T05:17:53;4.15;;;3.75;;
24143;SDS011;12307;50.828;6.080;2022-11-20T05:20:18;4.13;;;3.72;;
24143;SDS011;12307;50.828;6.080;2022-11-20T05:22:44;4.10;;;3.70;;
24143;SDS011;12307;50.828;6.080;2022-11-20T05:25:10;4.85;;;3.92;;
24143;SDS011;12307;50.828;6.080;2022-11-20T05:27:37;4.30;;;3.90;;
24143;SDS011;12307;50.828;6.080;2022-11-20T05:30:03;4.50;;;3.80;;
24143;SDS011;12307;50.828;6.080;2022-11-20T05:32:31;4.15;;;3.75;;
24143;SDS011;12307;50.828;6.080;2022-11-20T05:34:56;5.00;;;4.05;;
24143;SDS011;12307;50.828;6.080;2022-11-20T05:37:22;4.85;;;4.15;;
24143;SDS011;12307;50.828;6.080;2022-11-20T05:39:48;4.75;;;3.95;;
24143;SDS011;12307;50.828;6.080;2022-11-20T05:42:13;4.75;;;4.10;;
24143;SDS011;12307;50.828;6.080;2022-11-20T05:44:57;4.85;;;3.90;;
24143;SDS011;12307;50.828;6.080;2022-11-20T05:47:23;5.45;;;4.38;;
24143;SDS011;12307;50.828;6.080;2022-11-20T05:49:50;5.47;;;4.35;;
24143;SDS011;12307;50.828;6.080;2022-11-20T05:52:16;5.53;;;4.40;;
24143;SDS011;12307;50.828;6.080;2022-11-20T05:54:41;5.30;;;4.18;;
24143;SDS011;12307;50.828;6.080;2022-11-20T05:57:07;5.28;;;4.28;;
24143;SDS011;12307;50.828;6.080;2022-11-20T05:59:33;5.53;;;4.80;;
24143;SDS011;12307;50.828;6.080;2022-11-20T06:01:58;6.15;;;4.97;;
24143;SDS011;12307;50.828;6.080;2022-11-20T06:04:24;5.15;;;4.18;;
24143;SDS011;12307;50.828;6.080;2022-11-20T06:06:51;6.57;;;4.38;;
24143;SDS011;12307;50.828;6.080;2022-11-20T06:09:17;5.13;;;4.20;;
24143;SDS011;12307;50.828;6.080;2022-11-20T06:11:42;4.80;;;4.28;;
24143;SDS011;12307;50.828;6.080;2022-11-20T06:14:08;5.60;;;4.60;;
24143;SDS011;12307;50.828;6.080;2022-11-20T06:16:33;5.65;;;4.53;;
24143;SDS011;12307;50.828;6.080;2022-11-20T06:18:59;5.65;;;4.53;;
24143;SDS011;12307;50.828;6.080;2022-11-20T06:21:25;5.25;;;4.50;;
24143;SDS011;12307;50.828;6.080;2022-11-20T06:23:52;5.22;;;4.38;;
24143;SDS011;12307;50.828;6.080;2022-11-20T06:26:19;6.00;;;4.97;;
24143;SDS011;12307;50.828;6.080;2022-11-20T06:28:46;5.80;;;4.50;;
24143;SDS011;12307;50.828;6.080;2022-11-20T06:31:12;5.43;;;4.13;;
24143;SDS011;12307;50.828;6.080;2022-11-20T06:33:39;5.88;;;4.60;;
24143;SDS011;12307;50.828;6.080;2022-11-20T06:36:06;5.40;;;4.50;;
24143;SDS011;12307;50.828;6.080;2022-11-20T06:38:32;4.47;;;4.05;;
24143;SDS011;12307;50.828;6.080;2022-11-20T06:40:59;4.95;;;4.15;;
24143;SDS011;12307;50.828;6.080;2022-11-20T06:43:24;6.00;;;4.13;;
24143;SDS011;12307;50.828;6.080;2022-11-20T06:45:51;4.97;;;4.32;;
24143;SDS011;12307;50.828;6.080;2022-11-20T06:48:18;5.43;;;4.20;;
24143;SDS011;12307;50.828;6.080;2022-11-20T06:50:43;4.43;;;3.88;;
24143;SDS011;12307;50.828;6.080;2022-11-20T06:53:09;4.80;;;3.92;;
24143;SDS011;12307;50.828;6.080;2022-11-20T06:55:34;6.18;;;4.50;;
24143;SDS011;12307;50.828;6.080;2022-11-20T06:58:01;4.85;;;4.35;;
24143;SDS011;12307;50.828;6.080;2022-11-20T07:00:27;4.85;;;4.35;;
24143;SDS011;12307;50.828;6.080;2022-11-20T07:02:53;4.78;;;4.18;;
24143;SDS011;12307;50.828;6.080;2022-11-20T07:05:18;4.82;;;4.32;;
24143;SDS011;12307;50.828;6.080;2022-11-20T07:07:44;4.80;;;4.28;;
24143;SDS011;12307;50.828;6.080;2022-11-20T07:10:10;5.75;;;4.03;;
24143;SDS011;12307;50.828;6.080;2022-11-20T07:12:36;4.75;;;3.90;;
24143;SDS011;12307;50.828;6.080;2022-11-20T07:15:03;5.00;;;4.25;;
24143;SDS011;12307;50.828;6.080;2022-11-20T07:17:30;4.85;;;4.25;;
24143;SDS011;12307;50.828;6.080;2022-11-20T07:19:56;5.10;;;4.22;;
24143;SDS011;12307;50.828;6.080;2022-11-20T07:22:21;4.40;;;4.00;;
24143;SDS011;12307;50.828;6.080;2022-11-20T07:24:47;4.90;;;3.80;;
24143;SDS011;12307;50.828;6.080;2022-11-20T07:27:13;5.07;;;4.30;;
24143;SDS011;12307;50.828;6.080;2022-11-20T07:29:39;4.80;;;4.30;;
24143;SDS011;12307;50.828;6.080;2022-11-20T07:32:06;4.93;;;4.32;;
24143;SDS011;12307;50.828;6.080;2022-11-20T07:34:31;4.60;;;3.78;;
24143;SDS011;12307;50.828;6.080;2022-11-20T07:36:57;5.10;;;4.20;;
24143;SDS011;12307;50.828;6.080;2022-11-20T07:39:22;4.40;;;3.80;;
24143;SDS011;12307;50.828;6.080;2022-11-20T07:41:48;4.88;;;4.13;;
24143;SDS011;12307;50.828;6.080;2022-11-20T07:44:14;5.38;;;4.38;;
24143;SDS011;12307;50.828;6.080;2022-11-20T07:46:39;4.25;;;3.80;;
24143;SDS011;12307;50.828;6.080;2022-11-20T07:49:06;4.72;;;4.22;;
24143;SDS011;12307;50.828;6.080;2022-11-20T07:51:32;4.82;;;4.30;;
24143;SDS011;12307;50.828;6.080;2022-11-20T07:53:58;5.78;;;4.30;;
24143;SDS011;12307;50.828;6.080;2022-11-20T07:56:23;4.65;;;4.10;;
24143;SDS011;12307;50.828;6.080;2022-11-20T07:58:49;5.47;;;4.07;;
24143;SDS011;12307;50.828;6.080;2022-11-20T08:01:15;5.13;;;4.25;;
24143;SDS011;12307;50.828;6.080;2022-11-20T08:03:40;4.72;;;4.03;;
24143;SDS011;12307;50.828;6.080;2022-11-20T08:06:07;6.47;;;4.43;;
24143;SDS011;12307;50.828;6.080;2022-11-20T08:08:34;5.63;;;4.60;;
24143;SDS011;12307;50.828;6.080;2022-11-20T08:10:59;5.30;;;4.30;;
24143;SDS011;12307;50.828;6.080;2022-11-20T08:13:45;4.63;;;4.18;;
24143;SDS011;12307;50.828;6.080;2022-11-20T08:16:30;4.80;;;4.30;;
24143;SDS011;12307;50.828;6.080;2022-11-20T08:18:55;4.85;;;4.35;;
24143;SDS011;12307;50.828;6.080;2022-11-20T08:21:22;4.78;;;4.18;;
24143;SDS011;12307;50.828;6.080;2022-11-20T08:23:48;4.80;;;4.22;;
24143;SDS011;12307;50.828;6.080;2022-11-20T08:26:14;5.53;;;4.50;;
24143;SDS011;12307;50.828;6.080;2022-11-20T08:28:40;4.85;;;4.25;;
24143;SDS011;12307;50.828;6.080;2022-11-20T08:31:05;5.25;;;4.40;;
24143;SDS011;12307;50.828;6.080;2022-11-20T08:33:31;4.93;;;4.10;;
24143;SDS011;12307;50.828;6.080;2022-11-20T08:35:58;4.60;;;4.07;;
24143;SDS011;12307;50.828;6.080;2022-11-20T08:38:26;4.60;;;4.10;;
24143;SDS011;12307;50.828;6.080;2022-11-20T08:40:55;5.07;;;4.25;;
24143;SDS011;12307;50.828;6.080;2022-11-20T08:43:40;6.05;;;4.22;;
24143;SDS011;12307;50.828;6.080;2022-11-20T08:46:05;4.80;;;4.00;;
24143;SDS011;12307;50.828;6.080;2022-11-20T08:48:31;5.07;;;3.97;;
24143;SDS011;12307;50.828;6.080;2022-11-20T08:50:57;5.43;;;4.40;;
24143;SDS011;12307;50.828;6.080;2022-11-20T08:53:23;4.82;;;4.10;;
24143;SDS011;12307;50.828;6.080;2022-11-20T08:55:50;4.95;;;4.45;;
24143;SDS011;12307;50.828;6.080;2022-11-20T08:58:16;5.65;;;4.68;;
24143;SDS011;12307;50.828;6.080;2022-11-20T09:00:41;5.65;;;4.53;;
24143;SDS011;12307;50.828;6.080;2022-11-20T09:03:07;5.28;;;4.47;;
24143;SDS011;12307;50.828;6.080;2022-11-20T09:05:32;5.03;;;4.30;;
24143;SDS011;12307;50.828;6.080;2022-11-20T09:07:58;5.22;;;4.22;;
24143;SDS011;12307;50.828;6.080;2022-11-20T09:10:24;4.95;;;4.20;;
24143;SDS011;12307;50.828;6.080;2022-11-20T09:12:51;5.13;;;4.20;;
24143;SDS011;12307;50.828;6.080;2022-11-20T09:15:18;5.78;;;4.50;;
24143;SDS011;12307;50.828;6.080;2022-11-20T09:17:49;5.45;;;4.35;;
24143;SDS011;12307;50.828;6.080;2022-11-20T09:20:15;5.32;;;4.32;;
24143;SDS011;12307;50.828;6.080;2022-11-20T09:22:41;4.85;;;4.35;;
24143;SDS011;12307;50.828;6.080;2022-11-20T09:25:07;4.75;;;4.13;;
24143;SDS011;12307;50.828;6.080;2022-11-20T09:27:33;5.13;;;4.38;;
24143;SDS011;12307;50.828;6.080;2022-11-20T09:30:02;4.88;;;4.13;;
24143;SDS011;12307;50.828;6.080;2022-11-20T09:32:27;5.75;;;4.50;;
24143;SDS011;12307;50.828;6.080;2022-11-20T09:34:53;6.78;;;5.00;;
24143;SDS011;12307;50.828;6.080;2022-11-20T09:37:19;5.95;;;4.70;;
24143;SDS011;12307;50.828;6.080;2022-11-20T09:39:44;5.07;;;4.35;;
24143;SDS011;12307;50.828;6.080;2022-11-20T09:42:19;5.18;;;4.57;;
24143;SDS011;12307;50.828;6.080;2022-11-20T09:44:59;4.78;;;4.22;;
24143;SDS011;12307;50.828;6.080;2022-11-20T09:47:38;5.53;;;4.60;;
24143;SDS011;12307;50.828;6.080;2022-11-20T09:50:17;5.93;;;4.38;;
24143;SDS011;12307;50.828;6.080;2022-11-20T09:52:51;5.30;;;4.43;;
24143;SDS011;12307;50.828;6.080;2022-11-20T09:55:25;6.40;;;4.90;;
24143;SDS011;12307;50.828;6.080;2022-11-20T09:57:54;5.20;;;4.30;;
24143;SDS011;12307;50.828;6.080;2022-11-20T10:00:22;5.45;;;4.40;;
24143;SDS011;12307;50.828;6.080;2022-11-20T10:02:48;6.22;;;5.00;;
24143;SDS011;12307;50.828;6.080;2022-11-20T10:05:18;5.70;;;4.38;;
24143;SDS011;12307;50.828;6.080;2022-11-20T10:07:48;5.25;;;3.95;;
24143;SDS011;12307;50.828;6.080;2022-11-20T10:10:24;5.28;;;4.20;;
24143;SDS011;12307;50.828;6.080;2022-11-20T10:13:00;5.25;;;4.47;;
24143;SDS011;12307;50.828;6.080;2022-11-20T10:15:39;5.40;;;4.60;;
24143;SDS011;12307;50.828;6.080;2022-11-20T10:18:18;5.18;;;4.57;;
24143;SDS011;12307;50.828;6.080;2022-11-20T10:20:54;5.05;;;4.03;;
24143;SDS011;12307;50.828;6.080;2022-11-20T10:23:43;4.78;;;4.03;;
24143;SDS011;12307;50.828;6.080;2022-11-20T10:26:21;5.25;;;4.22;;
24143;SDS011;12307;50.828;6.080;2022-11-20T10:28:54;4.90;;;4.38;;
24143;SDS011;12307;50.828;6.080;2022-11-20T10:31:31;5.70;;;4.78;;
24143;SDS011;12307;50.828;6.080;2022-11-20T10:34:00;5.65;;;4.50;;
24143;SDS011;12307;50.828;6.080;2022-11-20T10:36:29;5.80;;;4.70;;
24143;SDS011;12307;50.828;6.080;2022-11-20T10:39:00;6.40;;;5.07;;
24143;SDS011;12307;50.828;6.080;2022-11-20T10:41:32;5.63;;;4.82;;
24143;SDS011;12307;50.828;6.080;2022-11-20T10:44:09;6.22;;;4.70;;
24143;SDS011;12307;50.828;6.080;2022-11-20T10:46:39;5.35;;;4.50;;
24143;SDS011;12307;50.828;6.080;2022-11-20T10:49:12;4.65;;;4.15;;
24143;SDS011;12307;50.828;6.080;2022-11-20T10:51:40;6.25;;;4.68;;
24143;SDS011;12307;50.828;6.080;2022-11-20T10:54:17;5.70;;;4.53;;
24143;SDS011;12307;50.828;6.080;2022-11-20T10:56:47;6.22;;;4.97;;
24143;SDS011;12307;50.828;6.080;2022-11-20T11:02:15;5.60;;;4.55;;
24143;SDS011;12307;50.828;6.080;2022-11-20T11:04:42;5.45;;;4.63;;
24143;SDS011;12307;50.828;6.080;2022-11-20T11:07:12;6.22;;;4.63;;
24143;SDS011;12307;50.828;6.080;2022-11-20T11:09:43;5.38;;;4.45;;
24143;SDS011;12307;50.828;6.080;2022-11-20T11:12:11;5.20;;;4.45;;
24143;SDS011;12307;50.828;6.080;2022-11-20T11:14:44;4.80;;;4.30;;
24143;SDS011;12307;50.828;6.080;2022-11-20T11:17:21;5.50;;;4.40;;
24143;SDS011;12307;50.828;6.080;2022-11-20T11:20:01;5.57;;;4.47;;
24143;SDS011;12307;50.828;6.080;2022-11-20T11:22:30;5.05;;;4.47;;
24143;SDS011;12307;50.828;6.080;2022-11-20T11:24:58;5.18;;;4.68;;
24143;SDS011;12307;50.828;6.080;2022-11-20T11:27:24;5.95;;;4.40;;
24143;SDS011;12307;50.828;6.080;2022-11-20T11:29:50;6.03;;;4.82;;
24143;SDS011;12307;50.828;6.080;2022-11-20T11:32:29;5.35;;;4.55;;
24143;SDS011;12307;50.828;6.080;2022-11-20T11:35:01;5.32;;;4.50;;
24143;SDS011;12307;50.828;6.080;2022-11-20T11:37:32;5.20;;;4.20;;
24143;SDS011;12307;50.828;6.080;2022-11-20T11:40:00;6.13;;;4.50;;
24143;SDS011;12307;50.828;6.080;2022-11-20T11:42:26;6.53;;;4.43;;
24143;SDS011;12307;50.828;6.080;2022-11-20T11:44:53;4.75;;;4.28;;
24143;SDS011;12307;50.828;6.080;2022-11-20T11:47:35;5.25;;;4.60;;
24143;SDS011;12307;50.828;6.080;2022-11-20T11:50:13;4.78;;;4.05;;
24143;SDS011;12307;50.828;6.080;2022-11-20T11:52:42;5.30;;;4.50;;
24143;SDS011;12307;50.828;6.080;2022-11-20T11:55:12;5.97;;;4.63;;
24143;SDS011;12307;50.828;6.080;2022-11-20T11:57:43;5.03;;;4.05;;
24143;SDS011;12307;50.828;6.080;2022-11-20T12:00:14;4.30;;;3.90;;
24143;SDS011;12307;50.828;6.080;2022-11-20T12:02:47;5.32;;;4.40;;
24143;SDS011;12307;50.828;6.080;2022-11-20T12:05:21;4.60;;;4.00;;
24143;SDS011;12307;50.828;6.080;2022-11-20T12:07:51;5.00;;;3.95;;
24143;SDS011;12307;50.828;6.080;2022-11-20T12:10:21;5.70;;;3.92;;
24143;SDS011;12307;50.828;6.080;2022-11-20T12:12:50;5.03;;;4.50;;
24143;SDS011;12307;50.828;6.080;2022-11-20T12:15:23;5.20;;;4.13;;
24143;SDS011;12307;50.828;6.080;2022-11-20T12:17:55;4.28;;;3.70;;
24143;SDS011;12307;50.828;6.080;2022-11-20T12:20:21;4.55;;;3.83;;
24143;SDS011;12307;50.828;6.080;2022-11-20T12:22:52;4.57;;;3.80;;
24143;SDS011;12307;50.828;6.080;2022-11-20T12:25:24;4.78;;;3.92;;
24143;SDS011;12307;50.828;6.080;2022-11-20T12:27:59;4.38;;;3.85;;
24143;SDS011;12307;50.828;6.080;2022-11-20T12:30:37;4.30;;;3.90;;
24143;SDS011;12307;50.828;6.080;2022-11-20T12:36:17;4.53;;;3.60;;
24143;SDS011;12307;50.828;6.080;2022-11-20T12:38:55;4.15;;;3.67;;
24143;SDS011;12307;50.828;6.080;2022-11-20T12:41:43;4.60;;;3.67;;
24143;SDS011;12307;50.828;6.080;2022-11-20T12:44:43;4.80;;;3.88;;
24143;SDS011;12307;50.828;6.080;2022-11-20T12:47:44;4.50;;;3.47;;
24143;SDS011;12307;50.828;6.080;2022-11-20T12:50:39;4.15;;;3.75;;
24143;SDS011;12307;50.828;6.080;2022-11-20T12:53:19;5.68;;;3.80;;
24143;SDS011;12307;50.828;6.080;2022-11-20T12:55:53;4.28;;;3.75;;
24143;SDS011;12307;50.828;6.080;2022-11-20T12:58:27;4.15;;;3.55;;
24143;SDS011;12307;50.828;6.080;2022-11-20T13:01:00;4.20;;;3.70;;
24143;SDS011;12307;50.828;6.080;2022-11-20T13:03:36;3.58;;;3.20;;
24143;SDS011;12307;50.828;6.080;2022-11-20T13:06:13;4.07;;;3.58;;
24143;SDS011;12307;50.828;6.080;2022-11-20T13:08:43;3.97;;;3.58;;
24143;SDS011;12307;50.828;6.080;2022-11-20T13:11:14;5.65;;;4.10;;
24143;SDS011;12307;50.828;6.080;2022-11-20T13:13:51;4.25;;;3.63;;
24143;SDS011;12307;50.828;6.080;2022-11-20T13:16:29;4.25;;;3.67;;
24143;SDS011;12307;50.828;6.080;2022-11-20T13:19:01;4.45;;;3.55;;
24143;SDS011;12307;50.828;6.080;2022-11-20T13:21:36;4.22;;;3.33;;
24143;SDS011;12307;50.828;6.080;2022-11-20T13:24:06;3.85;;;3.20;;
24143;SDS011;12307;50.828;6.080;2022-11-20T13:26:32;4.30;;;3.80;;
24143;SDS011;12307;50.828;6.080;2022-11-20T13:29:00;4.18;;;3.40;;
24143;SDS011;12307;50.828;6.080;2022-11-20T13:31:31;4.03;;;3.22;;
24143;SDS011;12307;50.828;6.080;2022-11-20T13:33:57;4.07;;;3.42;;
24143;SDS011;12307;50.828;6.080;2022-11-20T13:36:27;4.55;;;3.30;;
24143;SDS011;12307;50.828;6.080;2022-11-20T13:38:56;3.53;;;3.10;;
24143;SDS011;12307;50.828;6.080;2022-11-20T13:41:23;3.25;;;2.95;;
24143;SDS011;12307;50.828;6.080;2022-11-20T13:43:53;4.00;;;3.30;;
24143;SDS011;12307;50.828;6.080;2022-11-20T13:46:22;4.50;;;3.30;;
24143;SDS011;12307;50.828;6.080;2022-11-20T13:48:49;3.38;;;3.08;;
24143;SDS011;12307;50.828;6.080;2022-11-20T13:51:23;4.75;;;3.20;;
24143;SDS011;12307;50.828;6.080;2022-11-20T13:54:01;3.50;;;3.08;;
24143;SDS011;12307;50.828;6.080;2022-11-20T13:56:43;3.75;;;3.30;;
24143;SDS011;12307;50.828;6.080;2022-11-20T13:59:24;4.10;;;3.15;;
24143;SDS011;12307;50.828;6.080;2022-11-20T14:01:59;3.70;;;3.08;;
24143;SDS011;12307;50.828;6.080;2022-11-20T14:04:26;4.13;;;3.40;;
24143;SDS011;12307;50.828;6.080;2022-11-20T14:06:56;3.30;;;3.00;;
24143;SDS011;12307;50.828;6.080;2022-11-20T14:09:28;3.28;;;2.97;;
24143;SDS011;12307;50.828;6.080;2022-11-20T14:11:54;3.20;;;2.90;;
24143;SDS011;12307;50.828;6.080;2022-11-20T14:14:21;3.75;;;2.88;;
24143;SDS011;12307;50.828;6.080;2022-11-20T14:16:47;3.55;;;2.97;;
24143;SDS011;12307;50.828;6.080;2022-11-20T14:19:22;3.40;;;3.10;;
24143;SDS011;12307;50.828;6.080;2022-11-20T14:21:53;3.70;;;3.10;;
24143;SDS011;12307;50.828;6.080;2022-11-20T14:24:32;4.03;;;3.08;;
24143;SDS011;12307;50.828;6.080;2022-11-20T14:26:58;4.35;;;2.95;;
24143;SDS011;12307;50.828;6.080;2022-11-20T14:29:27;4.60;;;2.97;;
24143;SDS011;12307;50.828;6.080;2022-11-20T14:31:55;3.95;;;2.92;;
24143;SDS011;12307;50.828;6.080;2022-11-20T14:34:22;3.38;;;3.08;;
24143;SDS011;12307;50.828;6.080;2022-11-20T14:36:52;3.35;;;2.97;;
24143;SDS011;12307;50.828;6.080;2022-11-20T14:39:21;3.83;;;2.97;;
24143;SDS011;12307;50.828;6.080;2022-11-20T14:41:51;4.80;;;3.45;;
24143;SDS011;12307;50.828;6.080;2022-11-20T14:44:18;4.10;;;2.92;;
24143;SDS011;12307;50.828;6.080;2022-11-20T14:46:48;3.28;;;2.72;;
24143;SDS011;12307;50.828;6.080;2022-11-20T14:49:15;3.20;;;2.90;;
24143;SDS011;12307;50.828;6.080;2022-11-20T14:51:40;3.20;;;2.90;;
24143;SDS011;12307;50.828;6.080;2022-11-20T14:54:10;4.07;;;2.92;;
24143;SDS011;12307;50.828;6.080;2022-11-20T14:56:36;3.90;;;2.80;;
24143;SDS011;12307;50.828;6.080;2022-11-20T14:59:03;3.28;;;2.70;;
24143;SDS011;12307;50.828;6.080;2022-11-20T15:01:29;3.83;;;3.22;;
24143;SDS011;12307;50.828;6.080;2022-11-20T15:03:58;3.40;;;2.85;;